Time;durP1;ratioP1;P1;durP2;ratioP2;P2;SDS_P1;SDS_P2;PMS_P1;PMS_P2;Temp;Humidity;BMP_temperature;BMP_pressure;BME280_temperature;BME280_humidity;BME280_pressure;Samples;Min_cycle;Max_cycle;Signal;HPM_P1;HPM_P2
2023/09/22 00:02:09;;;;;;;1.08;0.47;;;15.60;99.90;;;;;;4888043;29;20049;-68
2023/09/22 00:04:41;;;;;;;4.20;0.60;;;15.50;99.90;;;;;;4894710;29;20409;-67
2023/09/22 00:07:12;;;;;;;1.88;0.43;;;15.50;99.90;;;;;;4887677;29;20040;-68
2023/09/22 00:09:44;;;;;;;0.70;0.40;;;15.40;99.90;;;;;;4891469;29;20044;-68
2023/09/22 00:12:16;;;;;;;1.60;0.50;;;15.40;99.90;;;;;;4891591;29;20414;-68
2023/09/22 00:14:48;;;;;;;1.35;0.45;;;15.40;99.90;;;;;;4906689;29;20048;-68
2023/09/22 00:17:20;;;;;;;0.57;0.40;;;15.40;99.90;;;;;;4892704;29;20391;-68
2023/09/22 00:19:52;;;;;;;1.02;0.30;;;15.40;99.90;;;;;;4892919;29;20119;-68
2023/09/22 00:22:23;;;;;;;0.32;0.30;;;15.30;99.90;;;;;;4890040;29;20105;-68
2023/09/22 00:24:51;;;;;;;0.43;0.32;;;15.30;99.90;;;;;;4909743;29;20071;-68
2023/09/22 00:27:23;;;;;;;0.50;0.40;;;15.30;99.90;;;;;;4886992;29;20052;-68
2023/09/22 00:29:55;;;;;;;1.15;0.40;;;15.30;99.90;;;;;;4903939;29;20041;-68
2023/09/22 00:32:22;;;;;;;1.38;0.30;;;15.20;99.90;;;;;;4889064;29;20045;-68
2023/09/22 00:34:53;;;;;;;0.65;0.30;;;15.20;99.90;;;;;;4900564;29;20059;-69
2023/09/22 00:37:25;;;;;;;0.60;0.30;;;15.10;99.90;;;;;;4901027;29;20049;-68
2023/09/22 00:39:57;;;;;;;0.40;0.30;;;15.10;99.90;;;;;;4901724;29;20062;-68
2023/09/22 00:42:24;;;;;;;0.75;0.40;;;15.10;99.90;;;;;;4876990;29;20634;-68
2023/09/22 00:44:56;;;;;;;0.55;0.38;;;15.10;99.90;;;;;;4890474;29;20116;-68
2023/09/22 00:47:28;;;;;;;0.30;0.30;;;15.10;99.90;;;;;;4906642;29;20045;-68
2023/09/22 00:50:01;;;;;;;1.02;0.40;;;15.10;99.90;;;;;;4891983;29;20117;-68
2023/09/22 00:52:29;;;;;;;0.40;0.30;;;15.10;99.90;;;;;;4900552;29;20137;-67
2023/09/22 00:55:02;;;;;;;0.45;0.38;;;15.00;99.90;;;;;;4906980;29;20419;-69
2023/09/22 00:57:34;;;;;;;0.93;0.82;;;15.00;99.90;;;;;;4887440;29;20131;-68
2023/09/22 01:00:03;;;;;;;0.30;0.30;;;15.00;99.90;;;;;;4892042;29;20099;-68
2023/09/22 01:02:37;;;;;;;1.65;1.30;;;15.00;99.90;;;;;;4901548;29;20124;-68
2023/09/22 01:05:09;;;;;;;0.57;0.40;;;14.90;99.90;;;;;;4901078;29;20059;-68
2023/09/22 01:07:41;;;;;;;0.80;0.60;;;14.90;99.90;;;;;;4874467;29;20056;-68
2023/09/22 01:10:12;;;;;;;0.93;0.50;;;14.80;99.90;;;;;;4904465;29;20052;-68
2023/09/22 01:12:45;;;;;;;0.30;0.30;;;14.80;99.90;;;;;;4903238;29;20041;-68
2023/09/22 01:15:17;;;;;;;0.43;0.32;;;14.90;99.90;;;;;;4891049;29;20039;-68
2023/09/22 01:17:49;;;;;;;1.08;0.50;;;14.90;99.90;;;;;;4905682;29;20049;-68
2023/09/22 01:20:17;;;;;;;0.63;0.40;;;14.90;99.90;;;;;;4902713;29;20509;-67
2023/09/22 01:22:48;;;;;;;0.75;0.50;;;14.80;99.90;;;;;;4893151;29;20052;-68
2023/09/22 01:25:20;;;;;;;2.67;0.57;;;14.80;99.90;;;;;;4894152;29;20101;-68
2023/09/22 01:27:52;;;;;;;2.72;0.57;;;14.80;99.90;;;;;;4886803;29;20052;-68
2023/09/22 01:30:24;;;;;;;1.55;0.70;;;14.80;99.90;;;;;;4900371;29;20051;-67
2023/09/22 01:32:56;;;;;;;0.60;0.47;;;14.80;99.90;;;;;;4885301;29;20416;-68
2023/09/22 01:35:32;;;;;;;0.57;0.40;;;14.80;99.90;;;;;;4887798;29;20183;-68
2023/09/22 01:38:19;;;;;;;1.35;0.60;;;14.80;99.90;;;;;;4869438;29;20059;-68
2023/09/22 01:40:52;;;;;;;1.80;0.70;;;14.70;99.90;;;;;;5268902;23;20635;-66
2023/09/22 01:43:18;;;;;;;0.93;0.50;;;14.70;99.90;;;;;;4869642;29;20676;-66
2023/09/22 01:45:50;;;;;;;1.17;0.70;;;14.70;99.90;;;;;;4875473;29;20047;-66
2023/09/22 01:48:22;;;;;;;1.00;0.50;;;14.60;99.90;;;;;;4870523;29;20051;-66
2023/09/22 01:50:49;;;;;;;1.50;0.88;;;14.60;99.90;;;;;;4872271;29;20049;-67
2023/09/22 01:53:21;;;;;;;1.63;0.70;;;14.50;99.90;;;;;;4879966;29;20544;-66
2023/09/22 01:55:53;;;;;;;0.85;0.52;;;14.50;99.90;;;;;;4888667;29;20040;-66
2023/09/22 01:58:20;;;;;;;1.35;0.60;;;14.50;99.90;;;;;;4894185;29;20123;-66
2023/09/22 02:00:52;;;;;;;1.30;0.70;;;14.40;99.90;;;;;;4877538;29;20048;-66
2023/09/22 02:03:19;;;;;;;0.88;0.45;;;14.40;99.90;;;;;;4876502;29;20065;-66
2023/09/22 02:05:51;;;;;;;1.10;0.75;;;14.40;99.90;;;;;;4883255;29;20037;-66
2023/09/22 02:08:23;;;;;;;1.20;0.70;;;14.40;99.90;;;;;;4895290;29;20041;-66
2023/09/22 02:10:55;;;;;;;1.15;0.65;;;14.40;99.90;;;;;;4882300;29;20072;-66
2023/09/22 02:13:27;;;;;;;1.30;0.60;;;14.30;99.90;;;;;;4880182;29;20044;-66
2023/09/22 02:15:59;;;;;;;1.25;0.60;;;14.30;99.90;;;;;;4867122;29;20040;-66
2023/09/22 02:18:31;;;;;;;1.20;0.70;;;14.30;99.90;;;;;;4885540;29;20056;-66
2023/09/22 02:21:14;;;;;;;1.33;0.65;;;14.20;99.90;;;;;;4858746;29;20040;-69
2023/09/22 02:23:46;;;;;;;1.08;0.55;;;14.20;99.90;;;;;;4884981;29;20144;-67
2023/09/22 02:26:19;;;;;;;1.07;0.50;;;14.20;99.90;;;;;;4882014;29;20132;-68
2023/09/22 02:28:51;;;;;;;0.88;0.57;;;14.20;99.90;;;;;;4878937;29;20293;-67
2023/09/22 02:31:24;;;;;;;2.35;0.98;;;14.20;99.90;;;;;;4883111;29;20058;-67
2023/09/22 02:33:55;;;;;;;1.42;0.95;;;14.10;99.90;;;;;;4892998;29;20516;-69
2023/09/22 02:36:28;;;;;;;1.30;0.80;;;14.10;99.90;;;;;;4865444;29;20049;-68
2023/09/22 02:39:03;;;;;;;0.85;0.60;;;14.10;99.90;;;;;;4881790;29;20067;-68
2023/09/22 02:41:35;;;;;;;2.58;1.42;;;14.00;99.90;;;;;;4903987;29;20132;-70
2023/09/22 02:44:09;;;;;;;1.17;0.73;;;14.00;99.90;;;;;;4902929;29;20488;-69
2023/09/22 02:46:36;;;;;;;1.73;0.70;;;14.10;99.90;;;;;;4900270;29;20037;-67
2023/09/22 02:49:03;;;;;;;1.30;0.93;;;14.10;99.90;;;;;;4893396;29;20099;-68
2023/09/22 02:51:35;;;;;;;2.93;0.80;;;14.00;99.90;;;;;;4876455;29;20048;-68
2023/09/22 02:54:08;;;;;;;1.17;0.90;;;14.00;99.90;;;;;;4903126;29;20303;-68
2023/09/22 02:56:40;;;;;;;2.28;1.63;;;14.00;99.90;;;;;;4884856;29;20047;-68
2023/09/22 02:59:07;;;;;;;1.63;0.65;;;14.00;99.90;;;;;;4899510;29;20073;-68
2023/09/22 03:01:36;;;;;;;1.92;0.80;;;14.10;99.90;;;;;;4895321;29;20136;-68
2023/09/22 03:04:03;;;;;;;1.10;0.70;;;14.10;99.90;;;;;;4898154;29;20055;-68
2023/09/22 03:06:38;;;;;;;1.17;0.52;;;14.10;99.90;;;;;;4886155;29;20106;-69
2023/09/22 03:09:10;;;;;;;1.58;0.70;;;14.10;99.90;;;;;;4901292;29;20462;-68
2023/09/22 03:11:39;;;;;;;1.10;0.68;;;14.10;99.90;;;;;;4896806;29;20040;-69
2023/09/22 03:14:10;;;;;;;0.93;0.63;;;14.10;99.90;;;;;;4888226;29;20672;-68
2023/09/22 03:16:42;;;;;;;0.90;0.60;;;14.00;99.90;;;;;;4906438;29;20049;-69
2023/09/22 03:19:14;;;;;;;2.58;0.50;;;14.00;99.90;;;;;;4896516;29;20049;-67
2023/09/22 03:21:45;;;;;;;1.10;0.60;;;14.00;99.90;;;;;;4906759;29;20521;-67
2023/09/22 03:24:13;;;;;;;1.00;0.70;;;14.00;99.90;;;;;;4891663;29;20572;-68
2023/09/22 03:26:46;;;;;;;0.98;0.60;;;14.00;99.90;;;;;;4906907;29;20036;-68
2023/09/22 03:29:13;;;;;;;1.08;0.68;;;14.00;99.90;;;;;;4903704;29;20390;-69
2023/09/22 03:31:45;;;;;;;1.65;1.05;;;14.00;99.90;;;;;;4885632;29;20132;-68
2023/09/22 03:34:12;;;;;;;1.25;0.70;;;14.00;99.90;;;;;;4888246;29;20040;-67
2023/09/22 03:36:44;;;;;;;1.88;0.77;;;13.90;99.90;;;;;;4896598;29;20049;-64
2023/09/22 03:39:18;;;;;;;1.70;0.60;;;13.90;99.90;;;;;;4891697;29;20048;-67
2023/09/22 03:41:45;;;;;;;1.42;0.75;;;13.90;99.90;;;;;;4907597;29;20112;-68
2023/09/22 03:44:17;;;;;;;1.02;0.70;;;13.90;99.90;;;;;;4887938;29;20411;-68
2023/09/22 03:46:45;;;;;;;2.72;0.82;;;13.90;99.90;;;;;;4902036;29;20040;-68
2023/09/22 03:49:17;;;;;;;1.90;0.60;;;13.90;99.90;;;;;;4889923;29;20044;-69
2023/09/22 03:51:49;;;;;;;1.08;0.98;;;13.90;99.90;;;;;;4889825;29;20048;-68
2023/09/22 03:54:21;;;;;;;1.00;0.70;;;13.80;99.90;;;;;;4891154;29;20041;-68
2023/09/22 03:56:53;;;;;;;0.95;0.80;;;13.70;99.90;;;;;;4890262;29;20044;-68
2023/09/22 03:59:25;;;;;;;1.38;0.60;;;13.70;99.90;;;;;;4885404;29;20079;-69
2023/09/22 04:01:52;;;;;;;1.77;0.80;;;13.70;99.90;;;;;;4899820;29;20124;-67
2023/09/22 04:04:19;;;;;;;2.22;0.77;;;13.60;99.90;;;;;;4905141;29;20092;-69
2023/09/22 04:06:51;;;;;;;1.63;0.73;;;13.60;99.90;;;;;;4889939;29;20048;-68
2023/09/22 04:09:23;;;;;;;4.32;1.67;;;13.60;99.90;;;;;;4893884;29;20052;-68
2023/09/22 04:11:54;;;;;;;1.25;0.80;;;13.60;99.90;;;;;;4885584;29;20048;-68
2023/09/22 04:14:27;;;;;;;1.30;0.60;;;13.50;99.90;;;;;;4904836;29;20535;-68
2023/09/22 04:17:00;;;;;;;1.40;0.80;;;13.50;99.90;;;;;;4891656;29;20057;-68
2023/09/22 04:19:27;;;;;;;1.20;0.80;;;13.50;99.90;;;;;;4892033;29;20040;-68
2023/09/22 04:22:00;;;;;;;1.45;0.93;;;13.50;99.90;;;;;;4890427;29;20621;-68
2023/09/22 04:24:32;;;;;;;1.05;0.70;;;13.50;99.90;;;;;;4888587;29;20037;-68
2023/09/22 04:27:08;;;;;;;1.08;0.98;;;13.40;99.90;;;;;;4891317;29;20064;-69
2023/09/22 04:29:35;;;;;;;4.32;1.00;;;13.50;99.90;;;;;;4893452;29;20052;-68
2023/09/22 04:32:04;;;;;;;4.03;0.90;;;13.50;99.90;;;;;;4889852;29;20481;-68
2023/09/22 04:34:38;;;;;;;1.25;0.75;;;13.40;99.90;;;;;;4888786;29;20475;-68
2023/09/22 04:37:10;;;;;;;1.42;1.02;;;13.40;99.90;;;;;;4889834;29;20045;-68
2023/09/22 04:39:36;;;;;;;2.03;0.88;;;13.40;99.90;;;;;;4890528;29;20045;-68
2023/09/22 04:42:09;;;;;;;1.45;0.82;;;13.40;99.90;;;;;;4888635;29;20539;-68
2023/09/22 04:44:41;;;;;;;2.42;1.23;;;13.40;99.90;;;;;;4893271;29;20056;-68
2023/09/22 04:47:13;;;;;;;1.40;0.82;;;13.40;99.90;;;;;;4890796;29;20044;-70
2023/09/22 04:49:40;;;;;;;1.45;1.00;;;13.40;99.90;;;;;;4892450;29;20032;-68
2023/09/22 04:52:12;;;;;;;2.33;1.52;;;13.40;99.90;;;;;;4895524;29;20119;-68
2023/09/22 04:54:44;;;;;;;1.75;1.35;;;13.40;99.90;;;;;;4891846;29;20037;-68
2023/09/22 04:57:17;;;;;;;2.65;1.10;;;13.40;99.90;;;;;;4903041;29;20051;-69
2023/09/22 04:59:44;;;;;;;3.58;1.30;;;13.40;99.90;;;;;;4888120;29;20049;-68
2023/09/22 05:02:16;;;;;;;2.38;1.10;;;13.40;99.90;;;;;;4888508;29;20052;-68
2023/09/22 05:04:48;;;;;;;2.53;0.70;;;13.40;99.90;;;;;;4892587;29;20120;-68
2023/09/22 05:07:20;;;;;;;2.40;1.00;;;13.40;99.90;;;;;;4885714;29;20413;-68
2023/09/22 05:09:52;;;;;;;2.70;0.90;;;13.30;99.90;;;;;;4893453;29;20056;-69
2023/09/22 05:12:19;;;;;;;2.65;0.75;;;13.30;99.90;;;;;;4889399;29;20127;-68
2023/09/22 05:14:52;;;;;;;0.88;0.75;;;13.20;99.90;;;;;;4905439;29;20097;-68
2023/09/22 05:17:24;;;;;;;1.50;0.90;;;13.20;99.90;;;;;;4891870;29;20119;-68
2023/09/22 05:19:58;;;;;;;0.98;0.80;;;13.20;99.90;;;;;;4889566;29;20063;-69
2023/09/22 05:22:30;;;;;;;4.70;1.10;;;13.20;99.90;;;;;;4891309;29;20033;-68
2023/09/22 05:24:57;;;;;;;2.92;0.98;;;13.20;99.90;;;;;;4901551;29;20061;-68
2023/09/22 05:27:29;;;;;;;1.48;0.60;;;13.20;99.90;;;;;;4892948;29;20465;-69
2023/09/22 05:30:03;;;;;;;2.25;0.90;;;13.20;99.90;;;;;;4887824;29;20056;-68
2023/09/22 05:32:30;;;;;;;3.05;1.00;;;13.30;99.90;;;;;;4886292;29;20529;-69
2023/09/22 05:35:02;;;;;;;1.92;0.70;;;13.30;99.90;;;;;;4883912;29;20053;-68
2023/09/22 05:37:34;;;;;;;1.98;0.70;;;13.20;99.90;;;;;;4889683;29;20056;-68
2023/09/22 05:40:12;;;;;;;2.90;0.90;;;13.20;99.90;;;;;;4886204;29;20068;-69
2023/09/22 05:42:44;;;;;;;2.83;0.80;;;13.20;99.90;;;;;;4883960;29;20052;-68
2023/09/22 05:45:16;;;;;;;1.05;0.80;;;13.20;99.90;;;;;;4900708;29;20045;-69
2023/09/22 05:47:42;;;;;;;2.13;0.60;;;13.20;99.90;;;;;;4892069;29;20120;-69
2023/09/22 05:50:14;;;;;;;2.28;0.93;;;13.10;99.90;;;;;;4903811;29;20142;-69
2023/09/22 05:52:46;;;;;;;2.25;0.90;;;13.10;99.90;;;;;;4887748;29;20073;-69
2023/09/22 05:55:19;;;;;;;2.28;0.82;;;13.20;99.90;;;;;;4889989;29;20067;-68
2023/09/22 05:57:51;;;;;;;2.05;0.90;;;13.20;99.90;;;;;;4887856;29;20060;-68
2023/09/22 06:00:26;;;;;;;1.83;0.75;;;13.10;99.90;;;;;;4885846;29;20171;-69
2023/09/22 06:02:53;;;;;;;1.85;0.90;;;13.10;99.90;;;;;;4887800;29;20055;-68
2023/09/22 06:05:25;;;;;;;1.00;0.52;;;13.00;99.90;;;;;;4887980;29;20055;-68
2023/09/22 06:07:59;;;;;;;1.23;0.70;;;12.90;99.90;;;;;;4881200;29;20040;-68
2023/09/22 06:10:31;;;;;;;1.00;0.80;;;12.80;99.90;;;;;;4887216;29;20045;-68
2023/09/22 06:13:03;;;;;;;2.10;0.80;;;12.80;99.90;;;;;;4884481;29;20052;-68
2023/09/22 06:15:35;;;;;;;0.98;0.70;;;12.90;99.90;;;;;;4890792;29;20670;-68
2023/09/22 06:18:08;;;;;;;1.25;0.88;;;12.90;99.90;;;;;;4882716;29;20059;-70
2023/09/22 06:20:40;;;;;;;1.03;0.70;;;12.90;99.90;;;;;;4887337;29;20059;-69
2023/09/22 06:23:08;;;;;;;2.47;0.70;;;12.90;99.90;;;;;;4894255;29;20053;-69
2023/09/22 06:25:40;;;;;;;1.52;0.60;;;12.90;99.90;;;;;;4888472;29;20045;-69
2023/09/22 06:28:14;;;;;;;1.40;0.60;;;12.90;99.90;;;;;;4888463;29;20049;-69
2023/09/22 06:30:47;;;;;;;3.72;0.73;;;12.90;99.90;;;;;;4883189;29;20424;-69
2023/09/22 06:33:19;;;;;;;1.52;0.60;;;12.90;99.90;;;;;;4883679;29;20041;-70
2023/09/22 06:36:01;;;;;;;1.50;0.70;;;12.90;99.90;;;;;;4887828;29;20044;-70
2023/09/22 06:38:33;;;;;;;2.42;0.70;;;12.90;99.90;;;;;;4887378;29;20509;-70
2023/09/22 06:41:05;;;;;;;2.53;0.63;;;12.90;99.90;;;;;;4896308;29;20056;-69
2023/09/22 06:43:37;;;;;;;6.32;0.88;;;12.90;99.90;;;;;;4884857;29;20045;-68
2023/09/22 06:46:09;;;;;;;0.88;0.68;;;12.90;99.90;;;;;;4893510;29;20044;-70
2023/09/22 06:48:36;;;;;;;1.60;0.70;;;12.90;99.90;;;;;;4891717;29;20049;-68
2023/09/22 06:51:15;;;;;;;1.50;0.50;;;12.90;99.90;;;;;;4884529;29;20053;-69
2023/09/22 06:53:42;;;;;;;1.50;0.75;;;12.80;99.90;;;;;;4885372;29;20124;-69
2023/09/22 06:56:14;;;;;;;1.60;0.70;;;12.80;99.90;;;;;;4887556;29;20053;-69
2023/09/22 06:58:47;;;;;;;1.35;0.60;;;12.90;99.90;;;;;;4890163;29;20049;-69
2023/09/22 07:01:19;;;;;;;2.13;0.98;;;12.80;99.90;;;;;;4889204;29;20057;-68
2023/09/22 07:03:48;;;;;;;4.15;0.95;;;12.90;99.90;;;;;;4886257;29;20041;-68
2023/09/22 07:06:20;;;;;;;0.85;0.40;;;12.90;99.90;;;;;;4889265;29;20044;-68
2023/09/22 07:08:53;;;;;;;1.70;0.60;;;12.90;99.90;;;;;;4879471;29;20517;-68
2023/09/22 07:11:25;;;;;;;0.75;0.50;;;13.00;99.90;;;;;;4897027;29;20052;-69
2023/09/22 07:13:57;;;;;;;1.17;0.60;;;13.00;99.90;;;;;;4881886;29;20521;-70
2023/09/22 07:16:24;;;;;;;1.40;0.80;;;13.10;99.90;;;;;;4885671;29;20542;-68
2023/09/22 07:18:56;;;;;;;1.30;0.70;;;13.10;99.90;;;;;;4882875;29;20116;-69
2023/09/22 07:21:28;;;;;;;0.63;0.50;;;13.20;99.90;;;;;;4889371;29;20044;-69
2023/09/22 07:24:01;;;;;;;1.33;0.75;;;13.30;99.90;;;;;;4889680;29;20053;-69
2023/09/22 07:26:27;;;;;;;2.35;0.68;;;13.30;99.90;;;;;;4889235;29;20124;-67
2023/09/22 07:28:59;;;;;;;1.85;0.80;;;13.30;99.90;;;;;;4889269;29;20123;-67
2023/09/22 07:31:31;;;;;;;1.40;0.90;;;13.30;99.90;;;;;;4884173;29;20412;-67
2023/09/22 07:34:03;;;;;;;3.60;0.90;;;13.30;99.90;;;;;;4888012;29;20048;-67
2023/09/22 07:36:30;;;;;;;2.30;0.68;;;13.40;99.90;;;;;;4904617;29;20036;-69
2023/09/22 07:39:03;;;;;;;1.38;0.88;;;13.50;99.90;;;;;;4882929;29;20060;-68
2023/09/22 07:41:36;;;;;;;1.58;0.70;;;13.50;99.90;;;;;;4901376;29;20037;-68
2023/09/22 07:44:07;;;;;;;1.23;0.70;;;13.50;99.90;;;;;;4884422;29;20064;-68
2023/09/22 07:46:41;;;;;;;1.15;0.65;;;13.60;99.90;;;;;;4877809;29;20060;-67
2023/09/22 07:49:12;;;;;;;3.72;1.00;;;13.60;99.90;;;;;;4903045;29;20052;-68
2023/09/22 07:51:44;;;;;;;1.73;0.75;;;13.60;99.90;;;;;;4887518;29;20206;-68
2023/09/22 07:54:17;;;;;;;4.10;0.75;;;13.60;99.90;;;;;;4887387;29;20055;-68
2023/09/22 07:56:49;;;;;;;2.13;0.70;;;13.50;99.90;;;;;;4887975;29;20040;-68
2023/09/22 07:59:21;;;;;;;1.77;1.10;;;13.60;99.90;;;;;;4889699;29;20056;-68
2023/09/22 08:01:53;;;;;;;2.13;0.70;;;13.60;99.90;;;;;;4896332;29;20040;-68
2023/09/22 08:04:19;;;;;;;1.13;0.70;;;13.60;99.90;;;;;;4906761;29;20081;-68
2023/09/22 08:06:52;;;;;;;1.38;0.65;;;13.60;99.90;;;;;;4892513;29;20511;-69
2023/09/22 08:09:24;;;;;;;2.08;0.90;;;13.60;99.90;;;;;;4892718;29;20053;-67
2023/09/22 08:11:52;;;;;;;1.25;0.73;;;13.60;99.90;;;;;;4890664;29;20417;-69
2023/09/22 08:14:25;;;;;;;1.48;0.93;;;13.60;99.90;;;;;;4889146;29;20048;-68
2023/09/22 08:16:56;;;;;;;1.45;0.80;;;13.60;99.90;;;;;;4890532;29;20048;-69
2023/09/22 08:19:23;;;;;;;1.95;0.82;;;13.60;99.90;;;;;;4891820;29;20440;-68
2023/09/22 08:21:55;;;;;;;1.17;0.82;;;13.60;99.90;;;;;;4891830;29;20128;-68
2023/09/22 08:24:27;;;;;;;1.67;0.68;;;13.60;99.90;;;;;;4895090;29;20045;-69
2023/09/22 08:27:01;;;;;;;1.10;0.80;;;13.60;99.90;;;;;;4895364;29;20063;-67
2023/09/22 08:29:33;;;;;;;3.10;1.50;;;13.50;99.90;;;;;;4894352;29;20040;-68
2023/09/22 08:32:05;;;;;;;3.20;1.20;;;13.60;99.90;;;;;;4894065;29;20400;-68
2023/09/22 08:34:38;;;;;;;1.67;0.90;;;13.60;99.90;;;;;;4933848;23;20580;-66
2023/09/22 08:37:10;;;;;;;1.30;0.80;;;13.50;99.90;;;;;;4911030;29;20420;-66
2023/09/22 08:39:42;;;;;;;2.50;1.30;;;13.50;99.90;;;;;;4923138;29;20040;-66
2023/09/22 08:42:14;;;;;;;1.80;0.85;;;13.60;99.90;;;;;;4912152;29;20052;-66
2023/09/22 08:44:46;;;;;;;2.05;1.10;;;13.60;99.90;;;;;;4926022;29;20132;-66
2023/09/22 08:47:22;;;;;;;2.40;1.30;;;13.60;99.90;;;;;;4904660;29;20052;-67
2023/09/22 08:49:54;;;;;;;1.73;1.42;;;13.60;99.90;;;;;;4904774;29;20083;-67
2023/09/22 08:52:28;;;;;;;2.65;1.63;;;13.60;99.90;;;;;;4919345;29;20055;-66
2023/09/22 08:54:55;;;;;;;2.85;1.20;;;13.50;99.90;;;;;;4910228;29;20048;-66
2023/09/22 08:57:29;;;;;;;1.77;1.20;;;13.60;99.90;;;;;;4924139;29;20056;-66
2023/09/22 09:00:01;;;;;;;2.13;1.10;;;13.60;99.90;;;;;;4923993;29;20063;-66
2023/09/22 09:02:33;;;;;;;2.40;1.30;;;13.50;99.90;;;;;;4910228;29;20046;-66
2023/09/22 09:05:31;;;;;;;4.50;1.48;;;13.50;99.90;;;;;;4911744;29;20052;-65
2023/09/22 09:08:11;;;;;;;2.10;1.85;;;13.50;99.90;;;;;;4905592;29;20099;-65
2023/09/22 09:10:45;;;;;;;1.75;1.30;;;13.50;99.90;;;;;;4903818;29;20059;-65
2023/09/22 09:13:27;;;;;;;2.05;1.25;;;13.50;99.90;;;;;;4901143;29;20056;-65
2023/09/22 09:16:01;;;;;;;2.55;1.48;;;13.50;99.90;;;;;;4906072;29;20040;-65
2023/09/22 09:18:33;;;;;;;2.40;1.25;;;13.50;99.90;;;;;;4920246;29;20052;-65
2023/09/22 09:21:15;;;;;;;2.80;1.00;;;13.40;99.90;;;;;;4911524;29;20047;-65
2023/09/22 09:23:55;;;;;;;1.55;0.90;;;13.40;99.90;;;;;;4904990;29;20111;-65
2023/09/22 09:26:29;;;;;;;3.08;0.95;;;13.30;99.90;;;;;;4925776;29;20067;-65
2023/09/22 09:29:02;;;;;;;1.92;1.15;;;13.30;99.90;;;;;;4910126;29;20049;-65
2023/09/22 09:31:45;;;;;;;1.63;0.82;;;13.20;99.90;;;;;;4909791;29;20068;-65
2023/09/22 09:34:14;;;;;;;1.30;0.80;;;13.20;99.90;;;;;;4911712;29;20047;-65
2023/09/22 09:36:46;;;;;;;;;;;13.10;99.90;;;;;;4911139;29;20044;-65
2023/09/22 09:39:12;;;;;;;2.90;0.70;;;13.00;99.90;;;;;;4905216;29;19929;-65
2023/09/22 09:41:45;;;;;;;3.15;0.75;;;12.90;99.90;;;;;;4910023;29;20056;-65
2023/09/22 09:44:17;;;;;;;2.97;0.68;;;12.90;99.90;;;;;;4918808;29;20086;-65
2023/09/22 09:46:44;;;;;;;2.00;0.60;;;12.90;99.90;;;;;;4924963;29;20043;-65
2023/09/22 09:49:18;;;;;;;2.08;0.80;;;12.80;99.90;;;;;;4925090;29;20143;-65
2023/09/22 09:51:48;;;;;;;1.58;0.73;;;12.80;99.90;;;;;;4907000;29;20032;-65
2023/09/22 09:54:21;;;;;;;3.83;1.75;;;12.70;99.90;;;;;;4908679;29;20052;-65
2023/09/22 09:56:54;;;;;;;2.33;0.50;;;12.70;99.90;;;;;;4904780;29;20054;-65
2023/09/22 09:59:22;;;;;;;3.22;0.80;;;12.70;99.90;;;;;;4924482;29;20456;-65
2023/09/22 10:01:54;;;;;;;1.17;0.50;;;12.70;99.90;;;;;;4911579;29;20428;-65
2023/09/22 10:04:22;;;;;;;2.28;0.82;;;12.70;99.90;;;;;;4906730;29;20493;-65
2023/09/22 10:06:55;;;;;;;2.20;0.82;;;12.60;99.90;;;;;;4907147;29;20123;-65
2023/09/22 10:09:28;;;;;;;2.10;0.80;;;12.70;99.90;;;;;;4908728;29;20062;-65
2023/09/22 10:12:00;;;;;;;2.33;0.60;;;12.70;99.90;;;;;;4908306;29;20052;-65
2023/09/22 10:14:51;;;;;;;2.05;0.75;;;12.60;99.90;;;;;;4900853;29;20052;-65
2023/09/22 10:17:24;;;;;;;2.97;1.13;;;12.60;99.90;;;;;;4904673;29;20062;-65
2023/09/22 10:20:07;;;;;;;1.38;1.20;;;12.70;99.90;;;;;;4904191;29;20047;-65
2023/09/22 10:22:39;;;;;;;1.35;0.63;;;12.70;99.90;;;;;;4917480;29;20064;-65
2023/09/22 10:25:14;;;;;;;0.93;0.50;;;12.70;99.90;;;;;;4905932;29;20095;-65
2023/09/22 10:27:59;;;;;;;1.35;0.75;;;12.80;99.90;;;;;;4913632;29;20072;-65
2023/09/22 10:30:43;;;;;;;1.75;0.60;;;12.70;99.90;;;;;;4912226;29;20054;-65
2023/09/22 10:33:15;;;;;;;1.35;0.95;;;12.70;99.90;;;;;;4924463;29;20123;-65
2023/09/22 10:35:43;;;;;;;1.48;0.60;;;12.70;99.90;;;;;;4911258;29;20652;-65
2023/09/22 10:38:15;;;;;;;1.95;0.80;;;12.60;99.90;;;;;;4903659;29;20508;-65
2023/09/22 10:41:02;;;;;;;1.37;0.63;;;12.60;99.90;;;;;;4911378;29;20135;-65
2023/09/22 10:43:32;;;;;;;2.35;0.60;;;12.50;99.90;;;;;;4907585;29;20044;-65
2023/09/22 10:46:04;;;;;;;3.13;0.70;;;12.50;99.90;;;;;;4908634;29;20048;-65
2023/09/22 10:48:36;;;;;;;3.17;1.48;;;12.50;99.90;;;;;;4904461;29;20048;-65
2023/09/22 10:51:08;;;;;;;1.83;0.82;;;12.50;99.90;;;;;;4906114;29;20066;-65
2023/09/22 10:53:40;;;;;;;1.85;0.80;;;12.60;99.90;;;;;;4909378;29;20040;-66
2023/09/22 10:56:12;;;;;;;1.35;0.60;;;12.60;99.90;;;;;;4923168;29;20122;-66
2023/09/22 10:58:48;;;;;;;1.83;0.70;;;12.60;99.90;;;;;;4907995;29;20156;-66
2023/09/22 11:01:22;;;;;;;1.42;1.15;;;12.60;99.90;;;;;;4923346;29;20044;-65
2023/09/22 11:03:53;;;;;;;4.40;0.90;;;12.50;99.90;;;;;;4910403;29;20127;-66
2023/09/22 11:06:25;;;;;;;1.88;0.70;;;12.50;99.90;;;;;;4908479;29;20123;-65
2023/09/22 11:08:59;;;;;;;1.38;0.70;;;12.60;99.90;;;;;;4908911;29;20040;-66
2023/09/22 11:11:33;;;;;;;2.22;0.68;;;12.70;99.90;;;;;;4922668;29;20052;-66
2023/09/22 11:14:01;;;;;;;2.00;0.73;;;12.70;99.90;;;;;;4917192;29;20092;-66
2023/09/22 11:16:29;;;;;;;2.15;0.70;;;12.70;99.90;;;;;;4907222;29;20448;-65
2023/09/22 11:19:05;;;;;;;2.78;0.73;;;12.80;99.90;;;;;;4907859;29;20729;-65
2023/09/22 11:21:39;;;;;;;1.20;0.77;;;12.90;99.90;;;;;;4905412;29;20136;-65
2023/09/22 11:24:11;;;;;;;2.25;0.80;;;12.90;99.90;;;;;;4902830;29;20051;-65
2023/09/22 11:26:42;;;;;;;1.88;0.75;;;13.00;99.90;;;;;;4909198;29;20052;-65
2023/09/22 11:29:09;;;;;;;1.08;0.57;;;13.00;99.90;;;;;;4905744;29;20128;-65
2023/09/22 11:31:48;;;;;;;0.75;0.40;;;13.10;99.90;;;;;;4908149;29;20100;-65
2023/09/22 11:34:21;;;;;;;1.00;0.60;;;13.10;99.90;;;;;;4907984;29;20050;-65
2023/09/22 11:36:55;;;;;;;1.00;0.60;;;13.10;99.90;;;;;;4927437;29;20143;-66
2023/09/22 11:39:29;;;;;;;0.70;0.30;;;13.10;99.90;;;;;;4913541;29;20397;-66
2023/09/22 11:42:02;;;;;;;0.52;0.30;;;13.10;99.90;;;;;;4910581;29;20047;-66
2023/09/22 11:44:29;;;;;;;1.90;0.47;;;13.00;99.90;;;;;;4908161;29;20131;-65
2023/09/22 11:47:02;;;;;;;1.17;0.50;;;12.90;99.90;;;;;;4906649;29;20407;-65
2023/09/22 11:49:38;;;;;;;0.82;0.40;;;12.80;99.90;;;;;;4921630;29;20130;-65
2023/09/22 11:52:10;;;;;;;1.17;0.50;;;12.80;99.90;;;;;;4924730;29;20040;-66
2023/09/22 11:54:43;;;;;;;1.48;0.50;;;12.80;99.90;;;;;;4926812;29;20072;-66
2023/09/22 11:57:14;;;;;;;0.75;0.50;;;12.80;99.90;;;;;;4909635;29;20047;-66
2023/09/22 11:59:48;;;;;;;0.73;0.40;;;12.80;99.90;;;;;;4913143;29;20051;-66
2023/09/22 12:02:20;;;;;;;1.00;0.40;;;12.80;99.90;;;;;;4923201;29;20488;-66
2023/09/22 12:04:52;;;;;;;0.25;0.20;;;12.80;99.90;;;;;;4910255;29;20075;-66
2023/09/22 12:07:19;;;;;;;0.55;0.40;;;12.70;99.90;;;;;;4914099;29;20033;-66
2023/09/22 12:09:51;;;;;;;0.65;0.30;;;12.60;99.90;;;;;;4919986;29;20048;-66
2023/09/22 12:12:23;;;;;;;0.22;0.22;;;12.50;99.90;;;;;;4909958;29;20040;-66
2023/09/22 12:14:55;;;;;;;1.63;0.35;;;12.60;99.90;;;;;;4925641;29;20070;-66
2023/09/22 12:17:27;;;;;;;0.85;0.38;;;12.70;99.90;;;;;;4912709;29;20052;-66
2023/09/22 12:19:59;;;;;;;0.60;0.30;;;12.80;99.90;;;;;;4909525;29;20135;-66
2023/09/22 12:22:31;;;;;;;0.70;0.30;;;12.90;99.90;;;;;;4906869;29;20048;-65
2023/09/22 12:25:04;;;;;;;2.47;0.30;;;12.90;99.90;;;;;;4927989;29;20497;-66
2023/09/22 12:27:36;;;;;;;0.60;0.60;;;13.00;99.90;;;;;;4911862;29;20052;-66
2023/09/22 12:30:03;;;;;;;0.70;0.40;;;13.00;99.90;;;;;;4909021;29;20284;-66
2023/09/22 12:32:35;;;;;;;0.70;0.30;;;13.10;99.90;;;;;;4912184;29;20100;-66
2023/09/22 12:35:07;;;;;;;1.25;0.40;;;13.10;99.90;;;;;;4929710;29;20047;-66
2023/09/22 12:37:39;;;;;;;2.10;0.30;;;13.10;99.90;;;;;;4915743;29;20032;-66
2023/09/22 12:40:11;;;;;;;0.88;0.35;;;13.00;99.90;;;;;;4914051;29;20126;-66
2023/09/22 12:42:43;;;;;;;0.73;0.40;;;13.10;99.90;;;;;;4914612;29;20051;-66
2023/09/22 12:45:16;;;;;;;0.55;0.30;;;13.10;99.90;;;;;;4911592;29;20046;-66
2023/09/22 12:47:49;;;;;;;0.30;0.30;;;13.10;99.90;;;;;;4913548;29;20040;-66
2023/09/22 12:50:21;;;;;;;0.80;0.30;;;13.10;99.90;;;;;;4926939;29;20049;-66
2023/09/22 12:52:48;;;;;;;0.60;0.30;;;13.10;99.90;;;;;;4925463;29;20135;-66
2023/09/22 12:55:20;;;;;;;0.20;0.20;;;13.10;99.90;;;;;;4909873;29;20067;-66
2023/09/22 12:57:51;;;;;;;0.45;0.30;;;13.10;99.90;;;;;;4926649;29;20538;-66
2023/09/22 13:00:23;;;;;;;0.85;0.40;;;13.20;99.90;;;;;;4913398;29;20516;-66
2023/09/22 13:02:55;;;;;;;0.65;0.30;;;13.20;99.90;;;;;;4913778;29;20063;-66
2023/09/22 13:05:27;;;;;;;1.17;0.32;;;13.30;99.90;;;;;;4914180;29;20047;-66
2023/09/22 13:08:00;;;;;;;0.25;0.20;;;13.20;99.90;;;;;;4927690;29;20076;-66
2023/09/22 13:10:32;;;;;;;0.60;0.22;;;13.20;99.90;;;;;;4913883;29;20039;-66
2023/09/22 13:12:59;;;;;;;0.45;0.30;;;13.20;99.90;;;;;;4913634;29;20111;-66